Time;durP1;ratioP1;P1;durP2;ratioP2;P2;SDS_P1;SDS_P2;PMS_P1;PMS_P2;Temp;Humidity;BMP_temperature;BMP_pressure;BME280_temperature;BME280_humidity;BME280_pressure;Samples;Min_cycle;Max_cycle;Signal;HPM_P1;HPM_P2
2022/02/06 00:00:37;;;;;;;2.20;1.25;;;;;;;4.05;68.36;97167.09;5035369;28;20076;-78
2022/02/06 00:03:06;;;;;;;3.17;1.80;;;;;;;4.06;67.87;97164.38;5035131;28;20045;-79
2022/02/06 00:05:34;;;;;;;6.07;1.48;;;;;;;4.04;65.97;97155.13;5035570;28;20053;-78
2022/02/06 00:08:06;;;;;;;4.40;1.50;;;;;;;4.04;67.71;97165.44;5035371;28;20046;-79
2022/02/06 00:10:34;;;;;;;2.78;1.30;;;;;;;4.04;66.74;97168.84;5035384;28;20056;-78
2022/02/06 00:13:01;;;;;;;2.45;1.10;;;;;;;4.03;66.67;97161.25;5035199;28;20053;-78
2022/02/06 00:15:29;;;;;;;3.95;1.42;;;;;;;3.98;65.99;97165.94;5035466;28;20045;-78
2022/02/06 00:17:57;;;;;;;4.68;2.05;;;;;;;3.95;65.60;97166.22;5035176;28;20056;-78
2022/02/06 00:20:32;;;;;;;4.68;1.42;;;;;;;3.91;66.26;97163.91;5034982;28;20045;-78
2022/02/06 00:23:07;;;;;;;3.13;1.15;;;;;;;3.93;66.83;97156.00;5035093;28;20045;-79
2022/02/06 00:25:46;;;;;;;3.58;1.10;;;;;;;3.93;66.53;97148.25;5034949;28;20049;-78
2022/02/06 00:28:20;;;;;;;2.78;1.52;;;;;;;3.96;67.62;97145.44;5034831;28;20064;-78
2022/02/06 00:30:55;;;;;;;5.18;1.13;;;;;;;4.02;68.44;97139.75;5044360;28;20060;-78
2022/02/06 00:33:37;;;;;;;2.55;1.50;;;;;;;4.02;66.96;97137.16;5058661;28;20067;-77
2022/02/06 00:41:40;;;;;;;1.52;1.00;;;;;;;4.14;66.87;97137.94;5140354;27;20359;-78
2022/02/06 00:44:09;;;;;;;2.47;1.27;;;;;;;4.12;68.41;97127.72;5156390;28;20039;-78
2022/02/06 00:46:39;;;;;;;6.00;1.35;;;;;;;4.13;67.57;97121.63;5135687;27;20097;-79
2022/02/06 00:49:14;;;;;;;3.08;1.17;;;;;;;4.15;68.87;97115.50;5132481;27;20047;-79
2022/02/06 00:51:49;;;;;;;6.97;1.80;;;;;;;4.17;68.71;97116.19;5132263;27;20057;-79
2022/02/06 00:54:17;;;;;;;2.00;1.13;;;;;;;4.20;69.38;97108.19;5133038;27;20527;-80
2022/02/06 00:56:46;;;;;;;4.03;1.20;;;;;;;4.23;68.63;97107.94;5131591;27;20052;-79
2022/02/06 00:59:13;;;;;;;4.50;1.50;;;;;;;4.24;68.69;97110.41;5132805;27;20055;-79
2022/02/06 01:01:42;;;;;;;8.30;2.17;;;;;;;4.26;69.03;97107.66;5135635;27;20048;-79
2022/02/06 01:04:10;;;;;;;5.03;1.20;;;;;;;4.28;68.83;97103.19;5135540;27;20078;-79
2022/02/06 01:06:37;;;;;;;3.88;1.25;;;;;;;4.28;68.04;97096.25;5133283;27;20073;-79
2022/02/06 01:09:08;;;;;;;5.28;0.90;;;;;;;4.30;68.72;97103.88;5131484;27;20039;-79
2022/02/06 01:11:37;;;;;;;5.80;1.63;;;;;;;4.32;69.20;97099.41;5131766;27;20043;-79
2022/02/06 01:14:14;;;;;;;3.80;1.75;;;;;;;4.33;69.45;97096.69;5131317;27;20047;-79
2022/02/06 01:16:48;;;;;;;2.72;1.50;;;;;;;4.36;69.52;97094.81;5131201;27;20089;-79
2022/02/06 01:19:21;;;;;;;3.72;2.03;;;;;;;4.37;68.50;97092.06;5131262;27;20056;-79
2022/02/06 01:21:53;;;;;;;4.50;1.13;;;;;;;4.38;68.89;97080.81;5131454;27;20046;-79
2022/02/06 01:24:26;;;;;;;2.63;1.10;;;;;;;4.37;69.23;97089.50;5131073;27;20055;-79
2022/02/06 01:26:58;;;;;;;3.25;1.10;;;;;;;4.37;69.00;97079.16;5130889;27;20052;-79
2022/02/06 01:29:38;;;;;;;4.95;1.40;;;;;;;4.39;69.63;97085.00;5131205;27;20058;-79
2022/02/06 01:32:10;;;;;;;5.80;1.42;;;;;;;4.39;69.72;97092.75;5131217;27;20055;-79
2022/02/06 01:34:44;;;;;;;3.58;1.10;;;;;;;4.42;69.20;97095.09;5131147;27;20142;-79
2022/02/06 01:37:21;;;;;;;2.45;0.90;;;;;;;4.42;69.00;97079.59;5140456;27;20048;-79
2022/02/06 01:40:02;;;;;;;4.18;1.42;;;;;;;4.44;69.77;97072.53;5139969;27;20065;-79
2022/02/06 01:42:35;;;;;;;5.70;1.77;;;;;;;4.46;68.54;97072.38;5135817;27;20043;-79
2022/02/06 02:05:10;;;;;;;3.05;0.90;;;;;;;4.46;66.41;97064.63;5080092;28;20054;-79
2022/02/06 02:08:09;;;;;;;3.95;0.93;;;;;;;4.44;66.24;97053.63;5116158;28;20055;-79
2022/02/06 02:13:33;;;;;;;2.05;0.63;;;;;;;4.42;66.63;97048.59;5114487;28;20104;-79
2022/02/06 02:21:53;;;;;;;2.30;0.90;;;;;;;4.43;68.35;97046.84;5102503;28;20043;-80
2022/02/06 02:24:40;;;;;;;3.25;0.90;;;;;;;4.43;67.30;97039.09;5115979;27;20055;-79
2022/02/06 02:27:17;;;;;;;6.13;1.17;;;;;;;4.41;67.08;97028.06;5116421;27;20048;-79
2022/02/06 02:44:08;;;;;;;1.90;0.80;;;;;;;4.41;68.62;96992.72;5145057;22;20056;-79
2022/02/06 02:46:31;;;;;;;2.10;0.73;;;;;;;4.42;67.55;96989.19;5055144;28;20053;-80
2022/02/06 02:49:00;;;;;;;2.40;0.90;;;;;;;4.43;67.86;96985.66;5056168;28;20414;-80
2022/02/06 02:51:33;;;;;;;2.78;0.63;;;;;;;4.44;68.86;96986.47;5056063;28;20049;-80
2022/02/06 02:54:08;;;;;;;4.28;1.10;;;;;;;4.44;69.23;96983.88;5056036;28;20048;-80
2022/02/06 02:56:42;;;;;;;1.50;0.60;;;;;;;4.43;68.65;96974.50;5056209;28;20056;-79
2022/02/06 02:59:17;;;;;;;2.20;0.60;;;;;;;4.41;67.41;96969.47;5056525;28;20403;-79
2022/02/06 03:01:51;;;;;;;5.53;1.17;;;;;;;4.39;67.91;96966.19;5055317;28;20045;-79
2022/02/06 03:04:18;;;;;;;1.98;0.70;;;;;;;4.37;67.81;96965.50;5054369;28;20048;-80
2022/02/06 03:06:46;;;;;;;5.72;1.00;;;;;;;4.37;68.18;96955.19;5054645;28;20044;-80
2022/02/06 03:09:16;;;;;;;3.92;0.93;;;;;;;4.38;68.64;96946.50;5054803;28;20049;-80
2022/02/06 03:11:43;;;;;;;2.80;0.77;;;;;;;4.37;68.70;96934.53;5054573;28;20056;-80
2022/02/06 03:14:15;;;;;;;2.70;0.80;;;;;;;4.37;67.95;96939.69;5054554;28;20510;-80
2022/02/06 03:16:49;;;;;;;3.87;0.80;;;;;;;4.35;66.91;96931.25;5054091;28;20091;-80
2022/02/06 03:19:19;;;;;;;3.38;0.90;;;;;;;4.38;67.00;96928.41;5054713;28;20048;-80
2022/02/06 03:21:46;;;;;;;5.55;0.90;;;;;;;4.38;67.12;96920.66;5054239;28;20045;-80
2022/02/06 03:24:24;;;;;;;4.25;0.80;;;;;;;4.37;67.23;96920.78;5054128;28;20048;-80
2022/02/06 03:26:53;;;;;;;4.25;0.82;;;;;;;4.37;67.02;96926.78;5053914;28;20052;-80
2022/02/06 03:29:24;;;;;;;5.72;1.65;;;;;;;4.39;66.72;96917.13;5054005;28;20495;-80
2022/02/06 03:31:53;;;;;;;3.50;1.10;;;;;;;4.41;67.34;96922.97;5054014;28;20059;-80
2022/02/06 03:34:20;;;;;;;2.10;0.82;;;;;;;4.40;67.00;96907.63;5053824;28;20139;-80
2022/02/06 03:36:48;;;;;;;3.22;1.00;;;;;;;4.39;67.01;96911.97;5053668;28;20056;-80
2022/02/06 03:39:22;;;;;;;4.93;1.25;;;;;;;4.38;66.42;96896.63;5053570;28;20072;-80
2022/02/06 03:41:54;;;;;;;5.82;0.95;;;;;;;4.37;66.39;96898.38;5053742;28;20132;-80
2022/02/06 03:44:29;;;;;;;5.35;0.88;;;;;;;4.39;66.80;96896.47;5053523;28;20064;-79
2022/02/06 03:47:03;;;;;;;3.80;1.23;;;;;;;4.40;66.36;96892.94;5053460;28;20048;-80
2022/02/06 03:49:42;;;;;;;4.30;0.77;;;;;;;4.43;65.45;96897.00;5053518;28;20053;-80
2022/02/06 03:52:10;;;;;;;4.30;0.90;;;;;;;4.42;65.38;96885.88;5053789;28;20049;-80
2022/02/06 03:54:39;;;;;;;3.00;0.82;;;;;;;4.44;65.26;96894.31;5053449;28;20049;-80
2022/02/06 03:57:07;;;;;;;2.05;0.85;;;;;;;4.45;66.15;96890.75;5053233;28;20060;-80
2022/02/06 03:59:35;;;;;;;2.67;0.80;;;;;;;4.46;65.81;96881.22;5053682;28;20052;-80
2022/02/06 04:02:04;;;;;;;2.35;0.85;;;;;;;4.49;66.78;96886.16;5053186;28;20055;-80
2022/02/06 04:04:32;;;;;;;3.75;0.95;;;;;;;4.50;66.08;96877.44;5053304;28;20048;-80
2022/02/06 04:07:05;;;;;;;5.03;0.82;;;;;;;4.52;65.62;96891.84;5053088;28;20396;-80
2022/02/06 04:09:37;;;;;;;2.78;0.98;;;;;;;4.56;66.57;96881.25;5053639;28;20454;-80
2022/02/06 04:12:07;;;;;;;2.00;0.40;;;;;;;4.58;65.35;96902.59;5052912;28;20052;-79
2022/02/06 04:14:51;;;;;;;4.65;0.90;;;;;;;4.59;65.75;96881.81;5052990;28;20045;-80
2022/02/06 04:17:22;;;;;;;2.50;0.80;;;;;;;4.61;65.48;96879.06;5052938;28;20052;-80
2022/02/06 04:19:51;;;;;;;3.92;1.00;;;;;;;4.59;65.31;96868.88;5053283;28;20124;-80
2022/02/06 04:22:19;;;;;;;6.07;0.90;;;;;;;4.61;65.95;96877.28;5052838;28;20053;-80
2022/02/06 04:24:47;;;;;;;3.28;0.77;;;;;;;4.61;66.01;96879.88;5052876;28;20049;-80
2022/02/06 04:27:17;;;;;;;1.13;0.73;;;;;;;4.66;65.97;96871.72;5052601;28;20127;-80
2022/02/06 04:29:46;;;;;;;3.13;0.80;;;;;;;4.65;65.79;96872.66;5053628;28;20410;-80
2022/02/06 04:32:14;;;;;;;1.23;0.77;;;;;;;4.64;65.67;96864.09;5053111;28;20067;-80
2022/02/06 04:34:42;;;;;;;3.38;0.70;;;;;;;4.63;65.33;96864.22;5052548;28;20053;-80
2022/02/06 04:37:16;;;;;;;4.25;1.05;;;;;;;4.64;65.83;96852.97;5052569;28;20057;-80
2022/02/06 04:40:02;;;;;;;2.65;1.10;;;;;;;4.64;65.50;96847.78;5052756;28;20529;-80
2022/02/06 04:42:53;;;;;;;2.70;0.77;;;;;;;4.62;65.62;96854.88;5052971;28;20467;-80
2022/02/06 04:48:47;;;;;;;5.25;0.80;;;;;;;4.60;65.71;96839.50;5048875;28;20049;-80
2022/02/06 04:54:37;;;;;;;2.20;1.15;;;;;;;4.61;65.32;96838.53;4991419;28;20046;-80
2022/02/06 05:16:50;;;;;;;1.98;1.23;;;;;;;4.65;65.27;96821.78;5052531;28;20053;-80
2022/02/06 05:19:59;;;;;;;1.75;0.68;;;;;;;4.64;64.56;96827.13;5052745;28;20055;-79
2022/02/06 05:30:44;;;;;;;1.75;0.63;;;;;;;4.71;64.28;96820.44;5046967;28;20103;-80
2022/02/06 05:33:13;;;;;;;3.38;0.52;;;;;;;4.72;64.68;96809.13;5056293;28;20049;-80
2022/02/06 05:35:41;;;;;;;2.38;0.90;;;;;;;4.73;64.47;96800.44;5056293;28;20612;-80
2022/02/06 05:38:08;;;;;;;5.30;1.05;;;;;;;4.74;64.25;96802.06;5056206;28;20059;-79
2022/02/06 05:40:36;;;;;;;2.42;1.30;;;;;;;4.74;64.83;96794.31;5056678;28;20049;-79
2022/02/06 05:43:03;;;;;;;3.55;1.40;;;;;;;4.75;64.98;96796.75;5056536;28;20060;-80
2022/02/06 05:45:31;;;;;;;4.40;1.02;;;;;;;4.76;64.72;96820.81;5056101;28;20045;-80
2022/02/06 05:47:58;;;;;;;2.55;0.68;;;;;;;4.76;63.22;96810.47;5055905;28;20052;-80
2022/02/06 05:50:27;;;;;;;2.78;0.73;;;;;;;4.76;63.21;96807.91;5056015;28;20045;-80
2022/02/06 05:52:55;;;;;;;2.60;0.68;;;;;;;4.75;63.22;96808.88;5055592;28;20059;-80
2022/02/06 05:55:23;;;;;;;3.63;0.98;;;;;;;4.77;62.64;96813.88;5055786;28;20041;-80
2022/02/06 05:57:50;;;;;;;5.05;1.23;;;;;;;4.78;63.05;96808.56;5055798;28;20159;-79
2022/02/06 06:00:18;;;;;;;3.35;1.80;;;;;;;4.80;63.34;96801.50;5055598;28;20055;-80
2022/02/06 06:02:46;;;;;;;2.83;0.80;;;;;;;4.81;63.57;96781.63;5055639;28;20045;-79
2022/02/06 06:05:13;;;;;;;3.97;0.73;;;;;;;4.79;63.32;96804.22;5055670;28;20056;-80
2022/02/06 06:07:43;;;;;;;5.97;1.30;;;;;;;4.76;62.53;96800.16;5055526;28;20049;-80
2022/02/06 06:10:11;;;;;;;4.68;0.95;;;;;;;4.75;63.19;96786.41;5055561;28;20574;-80
2022/02/06 06:12:40;;;;;;;1.00;0.50;;;;;;;4.74;62.34;96794.31;5056200;28;20049;-80
2022/02/06 06:15:08;;;;;;;5.53;0.75;;;;;;;4.73;61.89;96795.28;5055655;28;20045;-80
2022/02/06 06:17:37;;;;;;;4.22;0.98;;;;;;;4.75;63.00;96789.00;5055243;28;20045;-80
2022/02/06 06:20:09;;;;;;;1.50;0.57;;;;;;;4.75;63.39;96791.59;5056129;28;20060;-80
2022/02/06 06:22:37;;;;;;;3.42;0.80;;;;;;;4.75;63.58;96791.59;5055043;28;20041;-80
2022/02/06 06:25:07;;;;;;;1.85;0.93;;;;;;;4.76;62.63;96792.41;5055447;28;20061;-80
2022/02/06 06:27:35;;;;;;;4.22;0.90;;;;;;;4.77;63.37;96765.63;5055627;28;20132;-80
2022/02/06 06:30:05;;;;;;;3.20;0.95;;;;;;;4.78;63.68;96767.22;5057897;28;20048;-81
2022/02/06 06:32:33;;;;;;;3.80;0.60;;;;;;;4.79;62.25;96762.88;5055798;28;20045;-80
2022/02/06 06:35:03;;;;;;;1.33;0.77;;;;;;;4.78;62.45;96751.72;5055654;28;20056;-80
2022/02/06 06:37:31;;;;;;;1.70;0.55;;;;;;;4.79;63.01;96758.53;5055199;28;20072;-80
2022/02/06 06:39:59;;;;;;;3.70;1.00;;;;;;;4.78;63.31;96754.31;5055467;28;20040;-80
2022/02/06 06:42:29;;;;;;;2.78;0.80;;;;;;;4.80;63.79;96764.50;5055386;28;20045;-80
2022/02/06 06:44:56;;;;;;;3.85;1.05;;;;;;;4.80;63.38;96760.16;5055546;28;20053;-80
2022/02/06 06:47:24;;;;;;;3.95;0.80;;;;;;;4.81;62.98;96760.97;5054938;28;20052;-80
2022/02/06 06:49:52;;;;;;;3.28;0.70;;;;;;;4.82;63.37;96747.09;5054980;28;20075;-80
2022/02/06 06:52:19;;;;;;;4.22;0.90;;;;;;;4.82;63.73;96766.00;5054900;28;20068;-80
2022/02/06 06:54:51;;;;;;;1.92;0.80;;;;;;;4.83;63.44;96765.06;5054630;28;20064;-80
2022/02/06 06:57:21;;;;;;;3.95;0.60;;;;;;;4.84;63.79;96765.88;5055161;28;20049;-80
2022/02/06 07:00:21;;;;;;;4.40;0.70;;;;;;;4.83;63.48;96757.31;5055391;28;20063;-80
2022/02/06 07:02:48;;;;;;;4.88;0.70;;;;;;;4.85;62.78;96732.09;5054514;28;20049;-80
2022/02/06 07:05:16;;;;;;;3.20;0.90;;;;;;;4.87;63.60;96740.53;5054987;28;20059;-80
2022/02/06 07:07:43;;;;;;;3.45;0.60;;;;;;;4.89;62.93;96751.53;5056493;28;20069;-80
2022/02/06 07:10:11;;;;;;;2.30;0.77;;;;;;;4.91;62.99;96730.72;5058018;28;20048;-80
2022/02/06 07:12:39;;;;;;;2.80;0.82;;;;;;;4.91;63.98;96702.28;5057783;28;20055;-76
2022/02/06 07:15:08;;;;;;;6.35;1.20;;;;;;;4.92;62.47;96712.50;5071344;28;20064;-77
2022/02/06 07:17:36;;;;;;;5.60;0.68;;;;;;;4.94;63.20;96700.25;5074383;28;20055;-76
2022/02/06 07:20:05;;;;;;;3.33;1.05;;;;;;;4.96;63.22;96707.84;5072946;28;20075;-78
2022/02/06 07:22:35;;;;;;;2.53;0.95;;;;;;;4.98;62.13;96720.63;5075536;28;20080;-76
2022/02/06 07:25:04;;;;;;;6.40;1.27;;;;;;;5.00;63.29;96723.88;5075857;28;20060;-75
2022/02/06 07:27:35;;;;;;;2.03;0.68;;;;;;;5.00;63.27;96721.28;5071763;28;20056;-75
2022/02/06 07:30:06;;;;;;;2.90;0.70;;;;;;;5.00;62.48;96710.97;5075120;28;20087;-76
2022/02/06 07:32:37;;;;;;;2.30;0.63;;;;;;;5.02;62.66;96706.47;5074905;28;20055;-75
2022/02/06 07:35:07;;;;;;;3.67;1.00;;;;;;;5.04;62.15;96727.81;5074560;28;20275;-75
2022/02/06 07:37:35;;;;;;;4.22;0.95;;;;;;;5.06;62.68;96707.81;5061505;28;20060;-76
2022/02/06 07:40:03;;;;;;;3.17;0.75;;;;;;;5.07;62.46;96694.75;5053506;28;20495;-75
2022/02/06 07:42:31;;;;;;;3.72;1.20;;;;;;;5.10;63.65;96683.28;5051425;28;20053;-76
2022/02/06 07:44:58;;;;;;;5.45;0.90;;;;;;;5.13;63.08;96688.16;5053010;28;20045;-75
2022/02/06 07:47:26;;;;;;;1.75;0.63;;;;;;;5.10;63.17;96681.50;5052441;28;20064;-75
2022/02/06 07:49:57;;;;;;;3.83;0.80;;;;;;;5.13;62.63;96682.97;5052651;28;20057;-75
2022/02/06 07:52:26;;;;;;;3.15;1.10;;;;;;;5.13;62.36;96682.97;5053660;28;20250;-76
2022/02/06 07:54:54;;;;;;;5.55;1.08;;;;;;;5.14;63.15;96666.53;5053020;28;20049;-76
2022/02/06 07:57:22;;;;;;;1.98;0.77;;;;;;;5.16;62.52;96672.38;5052518;28;20049;-76
2022/02/06 07:59:50;;;;;;;5.40;0.88;;;;;;;5.20;62.61;96665.91;5054647;28;20639;-76
2022/02/06 08:02:18;;;;;;;4.95;1.00;;;;;;;5.22;63.12;96655.44;5072670;28;20040;-76
2022/02/06 08:04:48;;;;;;;4.20;1.65;;;;;;;5.24;61.83;96654.31;5072753;28;20102;-76
2022/02/06 08:07:17;;;;;;;5.18;0.93;;;;;;;5.28;62.96;96644.50;5072423;28;20048;-76
2022/02/06 08:09:51;;;;;;;2.30;0.90;;;;;;;5.32;63.45;96657.00;5056857;28;20049;-76
2022/02/06 08:12:25;;;;;;;2.35;0.93;;;;;;;5.33;62.00;96622.41;5053362;28;20056;-76
2022/02/06 08:14:55;;;;;;;2.40;0.90;;;;;;;5.36;62.22;96642.00;5059362;28;20049;-77
2022/02/06 08:17:25;;;;;;;4.18;1.95;;;;;;;5.39;61.74;96635.72;5048120;28;20079;-77
2022/02/06 08:19:54;;;;;;;6.05;1.23;;;;;;;5.41;62.89;96623.44;5049791;28;20053;-76
2022/02/06 08:22:24;;;;;;;4.05;0.90;;;;;;;5.46;61.76;96621.22;5048993;28;20049;-77
2022/02/06 08:24:52;;;;;;;2.53;0.77;;;;;;;5.51;62.02;96634.50;5061799;28;20040;-76
2022/02/06 08:27:22;;;;;;;1.45;0.70;;;;;;;5.55;62.50;96631.50;5072191;28;20079;-77
2022/02/06 08:29:50;;;;;;;3.25;1.10;;;;;;;5.58;61.51;96614.84;5068420;28;20136;-76
2022/02/06 08:32:19;;;;;;;3.00;0.90;;;;;;;5.63;62.60;96617.00;5073056;28;20059;-76
2022/02/06 08:34:47;;;;;;;4.93;1.00;;;;;;;5.63;62.06;96607.44;5065793;28;20045;-77
2022/02/06 08:37:15;;;;;;;5.68;0.95;;;;;;;5.64;62.85;96601.31;5071923;28;20037;-76
2022/02/06 08:39:45;;;;;;;3.53;1.52;;;;;;;5.67;61.79;96610.56;5054474;28;20045;-74
2022/02/06 08:42:14;;;;;;;3.63;1.13;;;;;;;5.69;62.31;96614.63;5055518;28;20045;-77
2022/02/06 08:44:46;;;;;;;4.72;2.50;;;;;;;5.71;62.21;96611.88;5053075;28;20052;-77
2022/02/06 08:47:16;;;;;;;4.45;1.60;;;;;;;5.73;61.65;96607.38;5053551;28;20045;-77
2022/02/06 08:49:45;;;;;;;2.00;0.90;;;;;;;5.76;63.06;96609.66;5045679;28;20054;-76
2022/02/06 08:52:13;;;;;;;3.85;1.58;;;;;;;5.81;62.41;96609.19;5033176;28;20115;-76
2022/02/06 08:54:42;;;;;;;4.60;1.00;;;;;;;5.81;62.32;96614.38;5032821;28;20049;-76
2022/02/06 08:57:21;;;;;;;1.75;0.75;;;;;;;5.80;62.42;96607.59;5032442;28;20050;-76
2022/02/06 08:59:49;;;;;;;4.13;0.88;;;;;;;5.79;62.57;96617.09;5049488;28;20049;-76
2022/02/06 09:02:16;;;;;;;1.08;0.63;;;;;;;5.78;61.80;96603.34;5061576;28;20264;-77
2022/02/06 09:04:55;;;;;;;9.07;4.40;;;;;;;5.79;62.09;96593.81;5061758;28;20059;-80
2022/02/06 09:07:26;;;;;;;62.60;29.30;;;;;;;5.81;61.94;96599.63;5069570;28;20076;-76
2022/02/06 09:09:59;;;;;;;5.75;2.42;;;;;;;5.86;62.70;96581.06;5064810;28;20071;-81
2022/02/06 09:12:29;;;;;;;3.97;1.42;;;;;;;5.91;63.47;96594.38;5067846;28;20061;-78
2022/02/06 09:14:57;;;;;;;4.15;1.13;;;;;;;5.95;61.90;96591.38;5055991;28;20053;-76
2022/02/06 09:17:24;;;;;;;2.95;0.73;;;;;;;5.98;62.35;96582.47;5055834;28;20485;-76
2022/02/06 09:19:53;;;;;;;1.77;0.80;;;;;;;5.99;62.25;96586.66;5054587;28;20057;-76
2022/02/06 09:22:20;;;;;;;3.25;1.00;;;;;;;5.97;62.40;96589.44;5055627;28;20049;-76
2022/02/06 09:24:48;;;;;;;4.03;0.73;;;;;;;5.96;61.50;96566.28;5055331;28;20041;-76
2022/02/06 09:27:15;;;;;;;3.67;0.85;;;;;;;5.96;61.27;96569.66;5055620;28;20525;-76
2022/02/06 09:29:44;;;;;;;3.58;1.33;;;;;;;5.98;60.17;96570.34;5055697;28;20053;-76
2022/02/06 09:37:27;;;;;;;21.10;13.23;;;;;;;6.05;62.44;96583.47;5055259;28;20144;-76
2022/02/06 09:39:57;;;;;;;3.58;1.88;;;;;;;6.08;62.67;96556.44;5055568;28;20049;-76
2022/02/06 09:42:26;;;;;;;5.40;1.00;;;;;;;6.08;60.98;96565.06;5055926;28;20092;-76
2022/02/06 09:44:57;;;;;;;1.63;0.60;;;;;;;6.07;62.17;96553.06;5054827;28;20045;-76
2022/02/06 09:47:26;;;;;;;4.40;0.90;;;;;;;6.06;61.72;96540.28;5055377;28;20454;-76
2022/02/06 09:49:54;;;;;;;1.70;1.05;;;;;;;6.06;62.21;96548.88;5055536;28;20049;-76
2022/02/06 09:52:25;;;;;;;2.63;0.70;;;;;;;6.06;62.54;96525.56;5055115;28;20049;-76
2022/02/06 09:54:54;;;;;;;3.85;0.60;;;;;;;6.08;62.53;96533.16;5055580;28;20088;-76
2022/02/06 09:57:27;;;;;;;4.30;0.90;;;;;;;6.07;61.06;96542.69;5054984;28;20045;-76
2022/02/06 09:59:56;;;;;;;;;;;;;;;6.09;61.93;96520.06;5055669;28;20059;-76
2022/02/06 10:02:27;;;;;;;2.28;0.70;;;;;;;6.08;61.64;96517.59;5055047;28;19920;-76
2022/02/06 10:04:56;;;;;;;4.70;0.77;;;;;;;6.09;61.80;96520.06;5054619;28;20055;-76
2022/02/06 10:07:29;;;;;;;4.57;0.85;;;;;;;6.10;62.53;96508.75;5054611;28;20056;-76
2022/02/06 10:09:57;;;;;;;;;;;;;;;6.16;62.38;96494.34;5055434;28;20514;-76
2022/02/06 10:12:25;;;;;;;5.32;0.68;;;;;;;6.15;62.73;96498.72;5054621;28;19920;-76
2022/02/06 10:14:52;;;;;;;1.98;0.80;;;;;;;6.15;61.95;96470.22;5054640;28;20049;-76
2022/02/06 10:17:23;;;;;;;3.08;0.60;;;;;;;6.16;61.83;96489.16;5054180;28;20430;-76
2022/02/06 10:19:52;;;;;;;3.15;0.80;;;;;;;6.18;62.59;96482.84;5054846;28;20078;-76
2022/02/06 10:22:26;;;;;;;2.67;0.90;;;;;;;6.21;63.22;96478.31;5054485;28;20111;-76
2022/02/06 10:25:05;;;;;;;4.05;0.85;;;;;;;6.23;63.00;96463.44;5054438;28;20048;-76
2022/02/06 10:28:00;;;;;;;1.30;0.80;;;;;;;6.24;61.39;96465.88;5054089;28;20045;-76
2022/02/06 10:30:40;;;;;;;9.25;3.63;;;;;;;6.27;63.24;96452.59;5054520;28;20056;-76
2022/02/06 10:33:12;;;;;;;52.08;28.50;;;;;;;6.31;63.72;96434.97;5054484;28;20049;-76
2022/02/06 10:35:42;;;;;;;5.78;2.53;;;;;;;6.33;62.75;96422.69;5054178;28;20052;-76
2022/02/06 10:38:15;;;;;;;2.90;1.88;;;;;;;6.36;63.86;96430.13;5054076;28;20045;-76
2022/02/06 10:40:45;;;;;;;7.88;1.10;;;;;;;6.39;62.67;96416.88;5053944;28;20503;-76
2022/02/06 10:43:13;;;;;;;2.70;0.95;;;;;;;6.41;62.32;96409.75;5054089;28;20052;-76
2022/02/06 10:45:41;;;;;;;3.40;0.80;;;;;;;6.45;63.40;96405.03;5054064;28;20045;-76
2022/02/06 10:48:22;;;;;;;33.90;18.33;;;;;;;6.45;61.84;96400.69;5053803;28;20064;-76
2022/02/06 10:50:51;;;;;;;3.83;1.88;;;;;;;6.45;61.96;96389.50;5052668;28;20391;-76
2022/02/06 10:53:19;;;;;;;3.90;0.60;;;;;;;6.44;62.26;96377.50;5045993;28;20053;-76
2022/02/06 10:55:58;;;;;;;5.47;0.70;;;;;;;6.44;62.14;96373.13;5052713;28;20045;-76
2022/02/06 10:58:28;;;;;;;5.85;1.58;;;;;;;6.47;62.51;96372.00;5053365;28;20139;-76
2022/02/06 11:00:56;;;;;;;4.38;0.70;;;;;;;6.50;62.91;96362.13;5053941;28;20410;-78
2022/02/06 11:03:31;;;;;;;1.98;0.50;;;;;;;6.56;62.55;96358.91;5054191;28;20053;-76
2022/02/06 11:06:07;;;;;;;6.15;0.90;;;;;;;6.57;61.21;96347.53;5053743;28;20055;-76
2022/02/06 11:08:37;;;;;;;2.20;0.50;;;;;;;6.60;61.86;96352.41;5053825;28;20052;-77
2022/02/06 11:11:08;;;;;;;2.20;0.63;;;;;;;6.60;61.66;96323.91;5053809;28;20479;-77
2022/02/06 11:13:37;;;;;;;1.05;0.40;;;;;;;6.65;61.26;96353.69;5053301;28;20067;-76
2022/02/06 11:16:16;;;;;;;2.47;0.60;;;;;;;6.65;60.54;96322.59;5053241;28;20052;-76
2022/02/06 11:18:54;;;;;;;2.60;0.60;;;;;;;6.67;61.42;96323.22;5053573;28;20068;-76
2022/02/06 11:21:24;;;;;;;2.15;0.45;;;;;;;6.67;60.98;96316.28;5053325;28;20079;-76
2022/02/06 11:23:54;;;;;;;3.08;0.60;;;;;;;6.69;61.04;96308.31;5052582;28;20084;-77
2022/02/06 11:26:23;;;;;;;6.32;0.95;;;;;;;6.70;62.09;96304.78;5052539;28;20082;-76
2022/02/06 11:28:52;;;;;;;1.70;0.70;;;;;;;6.72;61.50;96302.84;5053224;28;20053;-76
2022/02/06 11:31:20;;;;;;;5.07;1.58;;;;;;;6.73;61.44;96292.28;5053303;28;20053;-76
2022/02/06 11:33:49;;;;;;;2.00;1.00;;;;;;;6.75;61.63;96299.91;5052910;28;20049;-77
2022/02/06 11:36:23;;;;;;;3.55;0.85;;;;;;;6.75;61.75;96285.16;5052868;28;20104;-76
2022/02/06 11:44:58;;;;;;;2.30;0.63;;;;;;;6.77;61.15;96261.66;5052927;28;20057;-76
2022/02/06 11:47:30;;;;;;;1.80;0.50;;;;;;;6.78;60.37;96265.88;5052915;28;20063;-76
2022/02/06 11:50:05;;;;;;;1.58;0.55;;;;;;;6.77;61.20;96243.50;5053217;28;20060;-76
2022/02/06 11:52:52;;;;;;;3.92;0.90;;;;;;;6.80;60.70;96250.97;5053237;28;20057;-77
2022/02/06 11:55:39;;;;;;;1.30;0.50;;;;;;;6.80;61.35;96228.44;5052643;28;20604;-76
2022/02/06 11:58:28;;;;;;;2.67;0.80;;;;;;;6.85;61.48;96224.56;5052480;28;20570;-77
2022/02/06 12:01:25;;;;;;;5.78;1.00;;;;;;;6.87;61.05;96225.19;5052990;28;20056;-76
2022/02/06 12:03:56;;;;;;;3.63;0.82;;;;;;;6.88;60.78;96217.22;5052595;28;20059;-76
2022/02/06 12:06:26;;;;;;;3.75;0.60;;;;;;;6.88;60.79;96209.44;5052189;28;20454;-76
2022/02/06 12:09:15;;;;;;;3.40;0.73;;;;;;;6.88;60.29;96199.06;5052797;28;20495;-76
2022/02/06 12:12:11;;;;;;;4.10;0.45;;;;;;;6.90;61.12;96217.06;5052832;28;20060;-76
2022/02/06 12:14:44;;;;;;;2.08;0.52;;;;;;;6.89;59.91;96195.53;5052755;28;20060;-76
2022/02/06 12:17:21;;;;;;;4.25;0.60;;;;;;;6.91;61.36;96178.00;5052174;28;20095;-76
2022/02/06 12:20:08;;;;;;;1.90;0.68;;;;;;;6.92;61.22;96179.63;5052846;28;20064;-76
2022/02/06 12:22:38;;;;;;;2.90;0.75;;;;;;;6.90;61.05;96167.81;5052383;28;20057;-76
2022/02/06 12:25:23;;;;;;;0.90;0.38;;;;;;;6.91;60.65;96182.38;5052375;28;20059;-76
2022/02/06 12:27:52;;;;;;;1.70;0.38;;;;;;;6.88;59.58;96157.59;5051387;28;20055;-77
2022/02/06 12:30:22;;;;;;;5.22;0.52;;;;;;;6.92;60.26;96147.69;5052150;28;20049;-76
2022/02/06 12:32:50;;;;;;;1.20;0.50;;;;;;;6.89;60.71;96151.44;5051944;28;20056;-77
2022/02/06 12:38:12;;;;;;;3.63;0.65;;;;;;;6.89;60.70;96133.28;5032268;28;20061;-76
2022/02/06 12:40:41;;;;;;;2.72;0.40;;;;;;;6.87;60.85;96140.44;5032656;28;20045;-76
2022/02/06 12:43:08;;;;;;;26.17;15.13;;;;;;;6.87;60.99;96114.50;5040922;28;20053;-75
2022/02/06 12:45:40;;;;;;;14.90;10.10;;;;;;;6.88;61.24;96110.94;5052114;28;20080;-76
2022/02/06 12:48:09;;;;;;;5.18;2.38;;;;;;;6.90;61.21;96121.94;5052246;28;20056;-76
2022/02/06 12:50:40;;;;;;;4.13;1.23;;;;;;;6.92;60.63;96112.19;5052642;28;20060;-77
2022/02/06 12:53:17;;;;;;;1.73;0.50;;;;;;;6.92;60.51;96091.47;5052344;28;20222;-77
2022/02/06 12:55:48;;;;;;;0.70;0.40;;;;;;;6.92;61.03;96091.47;5052179;28;20056;-76
2022/02/06 12:58:18;;;;;;;2.38;0.65;;;;;;;6.94;60.79;96083.53;5054452;28;20056;-76
2022/02/06 13:00:48;;;;;;;2.10;0.40;;;;;;;6.94;61.22;96084.31;5053321;28;20049;-76
2022/02/06 13:03:23;;;;;;;0.70;0.35;;;;;;;6.94;61.72;96081.72;5053098;28;20110;-76
2022/02/06 13:05:54;;;;;;;3.10;0.90;;;;;;;6.95;60.11;96080.75;5052869;28;20281;-76
2022/02/06 13:08:22;;;;;;;3.03;0.38;;;;;;;6.97;60.81;96059.81;5052795;28;20519;-76
2022/02/06 13:10:54;;;;;;;1.67;0.40;;;;;;;6.98;60.32;96064.84;5052369;28;20100;-76
2022/02/06 13:13:25;;;;;;;4.95;0.70;;;;;;;7.00;61.05;96067.28;5052132;28;20053;-76
2022/02/06 13:16:37;;;;;;;1.15;0.50;;;;;;;7.01;61.05;96042.94;5051764;28;20075;-76
2022/02/06 13:19:30;;;;;;;0.98;0.40;;;;;;;7.01;60.70;96041.16;5052273;28;20053;-77
2022/02/06 13:27:58;;;;;;;4.30;0.75;;;;;;;7.06;61.47;96029.47;5051559;28;20106;-76
2022/02/06 13:30:49;;;;;;;1.98;0.45;;;;;;;7.07;60.02;96018.91;5053111;28;20053;-76
2022/02/06 13:33:31;;;;;;;1.65;0.25;;;;;;;7.09;60.34;96008.38;5052545;28;20514;-76
2022/02/06 13:36:10;;;;;;;1.38;0.40;;;;;;;7.11;59.95;96006.44;5052635;28;20136;-76
2022/02/06 13:38:37;;;;;;;1.65;0.50;;;;;;;7.11;60.01;96009.00;5051998;28;20053;-76
2022/02/06 13:41:12;;;;;;;2.10;0.40;;;;;;;7.09;60.89;95992.81;5052129;28;20057;-76
2022/02/06 13:43:42;;;;;;;1.45;0.40;;;;;;;7.11;61.23;95985.69;5051576;28;20057;-76
2022/02/06 13:46:13;;;;;;;2.58;0.60;;;;;;;7.14;60.59;95987.91;5051767;28;20045;-76